Lester B. Pearson International Airport
CYYZ : rendu visible

Aérodrome :











RETROUVEZ-NOUS SUR...

 
LOGIN :

S'inscrire | Disclaimer

   EN    FR    IT 

 









Légende :    VFR   VFR Marginal   IFR   IFR Intensif   IFR Très Intensif
Visi : 
Plafond : 
>= 8 km
>= 3000ft
5 à 8 km
1000 à 3000 ft
1500m à 5 km
500 à 1000 ft
800 à 1500m
200 à 500 ft
< 800m
< 200 ft
Symboles :   Orages  Brouillard  Fortes neiges  Fortes précipitations  Vent > 20 kt






- Altitude de l'aérodrome : 569 ft
- Code IATA : YYZ


CYYZ - Lester B. Pearson International

DERNIER METAR :
  • 281200Z 09010G16KT 15SM BKN095 OVC120 04/M00 A2997 RMK AC7AC1 PRESRR SLP154

METARs EXPIRÉS :
  • 281100Z 07014KT 15SM BKN100 OVC140 04/M00 A2993 RMK AC6AS2 SLP142
  • 281000Z 08017KT 15SM OVC110 04/M00 A2994 RMK AS8 PRESFR SLP143

TAF TAF CYYZ
Valide du 28 à 12h jusqu'au 29 à 18h UTC


281138Z 2812/2918 08012KT P6SM OVC100
TEMPO 2815/2818 P6SM -RA BKN020 OVC080
FM281800 08015KT P6SM SCT015 OVC040
TEMPO 2818/2821 5SM -RA BR OVC015
FM282100 08012G22KT 5SM -RA -DZ BR OVC015
PROB30 2821/2824 4SM -DZ BR BKN008 OVC015
FM290000 08012G22KT 3SM -RA -DZ BR OVC008
FM290300 08010G20KT 2SM -RA -DZ BR OVC004
FM290500 08010G20KT 11/2SM -RA BR OVC003
FM291000 09012KT 1SM SHRA BR OVC002
PROB30 2910/2913 1SM +TSRA BR OVC002CB
FM291300 09008KT 1SM -RA BR OVC002
FM291500 16008KT 1/2SM -DZ -RA FG VV002
BECMG 2916/2918 21015G25KT RMK NXT FCST BY 281500Z



MET'MAP, la Météo Aéronautique d'un coup d'oeil ! - Copyright ORBIFLY Décembre 2007 - Disclaimer

ORBIFLY MET'MAP TEAM :

Programmation & Développement : Alexandra Zaïnal
Sur une idée originale de : Baudouin d'Aumeries
Assistance à la programmation : Marc-Olivier Méhu
Soutien technique & logistique : Manuel Goepfert

Contact : metmap@orbifly.com




SOURCES & CREDITS :

   NOAA       Earth
Advisory